sensor_id;sensor_type;location;lat;lon;timestamp;temperature;humidity
21238;DHT22;10777;50.828;3.264;2022-08-01T00:01:06;22.20;99.90
21238;DHT22;10777;50.828;3.264;2022-08-01T00:03:31;22.20;99.90
21238;DHT22;10777;50.828;3.264;2022-08-01T00:05:57;22.20;99.90
21238;DHT22;10777;50.828;3.264;2022-08-01T00:08:23;22.20;99.90
21238;DHT22;10777;50.828;3.264;2022-08-01T00:10:49;22.10;99.90
21238;DHT22;10777;50.828;3.264;2022-08-01T00:13:14;22.20;99.90
21238;DHT22;10777;50.828;3.264;2022-08-01T00:15:40;22.10;99.90
21238;DHT22;10777;50.828;3.264;2022-08-01T00:18:06;22.10;99.90
21238;DHT22;10777;50.828;3.264;2022-08-01T00:20:31;22.20;99.90
21238;DHT22;10777;50.828;3.264;2022-08-01T00:22:57;22.10;99.90
21238;DHT22;10777;50.828;3.264;2022-08-01T00:25:23;22.00;99.90
21238;DHT22;10777;50.828;3.264;2022-08-01T00:27:48;21.90;99.90
21238;DHT22;10777;50.828;3.264;2022-08-01T00:30:14;22.00;99.90
21238;DHT22;10777;50.828;3.264;2022-08-01T00:32:41;22.10;99.90
21238;DHT22;10777;50.828;3.264;2022-08-01T00:35:07;22.10;99.90
21238;DHT22;10777;50.828;3.264;2022-08-01T00:37:33;22.20;99.90
21238;DHT22;10777;50.828;3.264;2022-08-01T00:39:59;22.30;99.90
21238;DHT22;10777;50.828;3.264;2022-08-01T00:42:24;22.30;99.90
21238;DHT22;10777;50.828;3.264;2022-08-01T00:44:50;22.40;99.90
21238;DHT22;10777;50.828;3.264;2022-08-01T00:47:16;22.30;99.90
21238;DHT22;10777;50.828;3.264;2022-08-01T00:49:41;22.50;99.90
21238;DHT22;10777;50.828;3.264;2022-08-01T00:52:08;22.30;99.90
21238;DHT22;10777;50.828;3.264;2022-08-01T00:54:34;22.30;99.90
21238;DHT22;10777;50.828;3.264;2022-08-01T00:57:00;22.20;99.90
21238;DHT22;10777;50.828;3.264;2022-08-01T00:59:26;22.20;99.90
21238;DHT22;10777;50.828;3.264;2022-08-01T01:01:52;22.20;99.90
21238;DHT22;10777;50.828;3.264;2022-08-01T01:04:17;22.10;99.90
21238;DHT22;10777;50.828;3.264;2022-08-01T01:09:56;22.20;99.90
21238;DHT22;10777;50.828;3.264;2022-08-01T01:12:32;22.20;99.90
21238;DHT22;10777;50.828;3.264;2022-08-01T01:15:12;22.30;99.90
21238;DHT22;10777;50.828;3.264;2022-08-01T01:17:48;22.30;99.90
21238;DHT22;10777;50.828;3.264;2022-08-01T01:20:17;22.10;99.90
21238;DHT22;10777;50.828;3.264;2022-08-01T01:22:55;22.10;99.90
21238;DHT22;10777;50.828;3.264;2022-08-01T01:25:40;21.90;99.90
21238;DHT22;10777;50.828;3.264;2022-08-01T01:28:34;22.00;99.90
21238;DHT22;10777;50.828;3.264;2022-08-01T01:31:02;22.00;99.90
21238;DHT22;10777;50.828;3.264;2022-08-01T01:33:33;22.10;99.90
21238;DHT22;10777;50.828;3.264;2022-08-01T01:36:04;22.10;99.90
21238;DHT22;10777;50.828;3.264;2022-08-01T01:38:34;22.00;99.90
21238;DHT22;10777;50.828;3.264;2022-08-01T01:41:02;22.00;99.90
21238;DHT22;10777;50.828;3.264;2022-08-01T01:43:29;22.00;99.90
21238;DHT22;10777;50.828;3.264;2022-08-01T01:45:56;21.80;99.90
21238;DHT22;10777;50.828;3.264;2022-08-01T01:48:23;21.50;99.90
21238;DHT22;10777;50.828;3.264;2022-08-01T01:50:51;21.60;99.90
21238;DHT22;10777;50.828;3.264;2022-08-01T01:53:20;21.60;99.90
21238;DHT22;10777;50.828;3.264;2022-08-01T01:55:48;21.60;99.90
21238;DHT22;10777;50.828;3.264;2022-08-01T01:58:16;21.60;99.90
21238;DHT22;10777;50.828;3.264;2022-08-01T02:00:44;21.70;99.90
21238;DHT22;10777;50.828;3.264;2022-08-01T02:03:12;21.80;99.90
21238;DHT22;10777;50.828;3.264;2022-08-01T02:05:39;21.90;99.90
21238;DHT22;10777;50.828;3.264;2022-08-01T02:08:06;21.90;99.90
21238;DHT22;10777;50.828;3.264;2022-08-01T02:10:34;21.50;99.90
21238;DHT22;10777;50.828;3.264;2022-08-01T02:13:03;21.30;99.90
21238;DHT22;10777;50.828;3.264;2022-08-01T02:15:30;21.00;99.90
21238;DHT22;10777;50.828;3.264;2022-08-01T02:17:57;20.60;99.90
21238;DHT22;10777;50.828;3.264;2022-08-01T02:20:24;20.70;99.90
21238;DHT22;10777;50.828;3.264;2022-08-01T02:22:57;20.60;99.90
21238;DHT22;10777;50.828;3.264;2022-08-01T02:25:31;20.70;99.90
21238;DHT22;10777;50.828;3.264;2022-08-01T02:28:03;20.90;99.90
21238;DHT22;10777;50.828;3.264;2022-08-01T02:30:33;21.00;99.90
21238;DHT22;10777;50.828;3.264;2022-08-01T02:33:18;21.10;99.90
21238;DHT22;10777;50.828;3.264;2022-08-01T02:35:49;20.90;99.90
21238;DHT22;10777;50.828;3.264;2022-08-01T02:38:17;20.70;99.90
21238;DHT22;10777;50.828;3.264;2022-08-01T02:40:47;20.70;99.90
21238;DHT22;10777;50.828;3.264;2022-08-01T02:43:17;20.50;99.90
21238;DHT22;10777;50.828;3.264;2022-08-01T02:45:46;20.50;99.90
21238;DHT22;10777;50.828;3.264;2022-08-01T02:48:14;20.70;99.90
21238;DHT22;10777;50.828;3.264;2022-08-01T02:50:44;20.70;99.90
21238;DHT22;10777;50.828;3.264;2022-08-01T02:53:12;21.00;99.90
21238;DHT22;10777;50.828;3.264;2022-08-01T02:55:39;21.10;99.90
21238;DHT22;10777;50.828;3.264;2022-08-01T02:58:07;21.20;99.90
21238;DHT22;10777;50.828;3.264;2022-08-01T03:00:34;21.40;99.90
21238;DHT22;10777;50.828;3.264;2022-08-01T03:03:02;21.20;99.90
21238;DHT22;10777;50.828;3.264;2022-08-01T03:05:29;21.10;99.90
21238;DHT22;10777;50.828;3.264;2022-08-01T03:07:59;21.00;99.90
21238;DHT22;10777;50.828;3.264;2022-08-01T03:10:26;21.20;99.90
21238;DHT22;10777;50.828;3.264;2022-08-01T03:12:54;21.40;99.90
21238;DHT22;10777;50.828;3.264;2022-08-01T03:15:23;21.10;99.90
21238;DHT22;10777;50.828;3.264;2022-08-01T03:17:51;21.10;99.90
21238;DHT22;10777;50.828;3.264;2022-08-01T03:20:21;21.20;99.90
21238;DHT22;10777;50.828;3.264;2022-08-01T03:22:51;21.20;99.90
21238;DHT22;10777;50.828;3.264;2022-08-01T03:25:20;21.20;99.90
21238;DHT22;10777;50.828;3.264;2022-08-01T03:27:50;21.20;99.90
21238;DHT22;10777;50.828;3.264;2022-08-01T03:30:22;20.90;99.90
21238;DHT22;10777;50.828;3.264;2022-08-01T03:32:48;21.00;99.90
21238;DHT22;10777;50.828;3.264;2022-08-01T03:35:14;20.90;99.90
21238;DHT22;10777;50.828;3.264;2022-08-01T03:37:45;20.80;99.90
21238;DHT22;10777;50.828;3.264;2022-08-01T03:40:20;20.80;99.90
21238;DHT22;10777;50.828;3.264;2022-08-01T03:42:52;20.80;99.90
21238;DHT22;10777;50.828;3.264;2022-08-01T03:45:22;20.70;99.90
21238;DHT22;10777;50.828;3.264;2022-08-01T03:47:50;20.60;99.90
21238;DHT22;10777;50.828;3.264;2022-08-01T03:50:21;20.70;99.90
21238;DHT22;10777;50.828;3.264;2022-08-01T03:52:49;20.40;99.90
21238;DHT22;10777;50.828;3.264;2022-08-01T03:55:16;20.30;99.90
21238;DHT22;10777;50.828;3.264;2022-08-01T03:57:44;20.40;99.90
21238;DHT22;10777;50.828;3.264;2022-08-01T04:00:11;20.50;99.90
21238;DHT22;10777;50.828;3.264;2022-08-01T04:02:37;20.20;99.90
21238;DHT22;10777;50.828;3.264;2022-08-01T04:05:03;20.30;99.90
21238;DHT22;10777;50.828;3.264;2022-08-01T04:07:31;20.50;99.90
21238;DHT22;10777;50.828;3.264;2022-08-01T04:09:57;20.80;99.90
21238;DHT22;10777;50.828;3.264;2022-08-01T04:12:23;20.90;99.90
21238;DHT22;10777;50.828;3.264;2022-08-01T04:14:49;21.00;99.90
21238;DHT22;10777;50.828;3.264;2022-08-01T04:17:17;21.10;99.90
21238;DHT22;10777;50.828;3.264;2022-08-01T04:19:43;21.00;99.90
21238;DHT22;10777;50.828;3.264;2022-08-01T04:22:11;21.10;99.90
21238;DHT22;10777;50.828;3.264;2022-08-01T04:24:39;21.00;99.90
21238;DHT22;10777;50.828;3.264;2022-08-01T04:27:11;20.80;99.90
21238;DHT22;10777;50.828;3.264;2022-08-01T04:29:39;20.90;99.90
21238;DHT22;10777;50.828;3.264;2022-08-01T04:32:10;21.20;99.90
21238;DHT22;10777;50.828;3.264;2022-08-01T04:34:43;21.10;99.90
21238;DHT22;10777;50.828;3.264;2022-08-01T04:37:12;20.90;99.90
21238;DHT22;10777;50.828;3.264;2022-08-01T04:39:42;20.90;99.90
21238;DHT22;10777;50.828;3.264;2022-08-01T04:42:09;20.90;99.90
21238;DHT22;10777;50.828;3.264;2022-08-01T04:44:36;20.90;99.90
21238;DHT22;10777;50.828;3.264;2022-08-01T04:47:03;21.10;99.90
21238;DHT22;10777;50.828;3.264;2022-08-01T04:49:32;21.30;99.90
21238;DHT22;10777;50.828;3.264;2022-08-01T04:51:58;21.20;99.90
21238;DHT22;10777;50.828;3.264;2022-08-01T04:54:26;21.30;99.90
21238;DHT22;10777;50.828;3.264;2022-08-01T04:56:53;21.40;99.90
21238;DHT22;10777;50.828;3.264;2022-08-01T04:59:21;21.30;99.90
21238;DHT22;10777;50.828;3.264;2022-08-01T05:02:08;21.20;99.90
21238;DHT22;10777;50.828;3.264;2022-08-01T05:04:34;21.50;99.90
21238;DHT22;10777;50.828;3.264;2022-08-01T05:07:00;21.40;99.90
21238;DHT22;10777;50.828;3.264;2022-08-01T05:09:26;21.50;99.90
21238;DHT22;10777;50.828;3.264;2022-08-01T05:11:52;21.60;99.90
21238;DHT22;10777;50.828;3.264;2022-08-01T05:14:17;21.20;99.90
21238;DHT22;10777;50.828;3.264;2022-08-01T05:16:45;21.00;99.90
21238;DHT22;10777;50.828;3.264;2022-08-01T05:19:11;21.10;99.90
21238;DHT22;10777;50.828;3.264;2022-08-01T05:21:37;21.10;99.90
21238;DHT22;10777;50.828;3.264;2022-08-01T05:24:04;21.30;99.90
21238;DHT22;10777;50.828;3.264;2022-08-01T05:26:29;21.50;99.90
21238;DHT22;10777;50.828;3.264;2022-08-01T05:28:55;21.70;99.90
21238;DHT22;10777;50.828;3.264;2022-08-01T05:31:21;21.80;99.90
21238;DHT22;10777;50.828;3.264;2022-08-01T05:33:46;21.90;99.90
21238;DHT22;10777;50.828;3.264;2022-08-01T05:36:12;21.90;99.90
21238;DHT22;10777;50.828;3.264;2022-08-01T05:38:38;21.90;99.90
21238;DHT22;10777;50.828;3.264;2022-08-01T05:41:04;21.70;99.90
21238;DHT22;10777;50.828;3.264;2022-08-01T05:43:30;21.70;99.90
21238;DHT22;10777;50.828;3.264;2022-08-01T05:45:55;21.70;99.90
21238;DHT22;10777;50.828;3.264;2022-08-01T05:48:21;21.50;99.90
21238;DHT22;10777;50.828;3.264;2022-08-01T05:50:47;21.50;99.90
21238;DHT22;10777;50.828;3.264;2022-08-01T05:53:13;21.50;99.90
21238;DHT22;10777;50.828;3.264;2022-08-01T05:55:39;21.40;99.90
21238;DHT22;10777;50.828;3.264;2022-08-01T05:58:05;21.50;99.90
21238;DHT22;10777;50.828;3.264;2022-08-01T06:00:31;21.80;99.90
21238;DHT22;10777;50.828;3.264;2022-08-01T06:02:57;21.90;99.90
21238;DHT22;10777;50.828;3.264;2022-08-01T06:05:23;21.80;99.90
21238;DHT22;10777;50.828;3.264;2022-08-01T06:07:49;21.60;99.90
21238;DHT22;10777;50.828;3.264;2022-08-01T06:10:14;21.70;99.90
21238;DHT22;10777;50.828;3.264;2022-08-01T06:12:40;21.40;99.90
21238;DHT22;10777;50.828;3.264;2022-08-01T06:15:07;21.60;99.90
21238;DHT22;10777;50.828;3.264;2022-08-01T06:17:33;21.80;99.90
21238;DHT22;10777;50.828;3.264;2022-08-01T06:20:00;22.10;99.90
21238;DHT22;10777;50.828;3.264;2022-08-01T06:22:25;22.20;99.90
21238;DHT22;10777;50.828;3.264;2022-08-01T06:24:51;22.10;99.90
21238;DHT22;10777;50.828;3.264;2022-08-01T06:27:17;22.00;99.90
21238;DHT22;10777;50.828;3.264;2022-08-01T06:29:43;22.00;99.90
21238;DHT22;10777;50.828;3.264;2022-08-01T06:32:09;22.10;99.90
21238;DHT22;10777;50.828;3.264;2022-08-01T06:34:35;22.10;99.90
21238;DHT22;10777;50.828;3.264;2022-08-01T06:37:01;21.70;99.90
21238;DHT22;10777;50.828;3.264;2022-08-01T06:39:27;21.90;99.90
21238;DHT22;10777;50.828;3.264;2022-08-01T06:41:54;22.30;99.90
21238;DHT22;10777;50.828;3.264;2022-08-01T06:44:19;21.90;99.90
21238;DHT22;10777;50.828;3.264;2022-08-01T06:46:45;22.00;99.90
21238;DHT22;10777;50.828;3.264;2022-08-01T06:49:11;22.10;99.90
21238;DHT22;10777;50.828;3.264;2022-08-01T06:51:36;22.10;99.90
21238;DHT22;10777;50.828;3.264;2022-08-01T06:54:02;22.20;99.90
21238;DHT22;10777;50.828;3.264;2022-08-01T06:56:28;22.10;99.90
21238;DHT22;10777;50.828;3.264;2022-08-01T06:58:54;22.00;99.90
21238;DHT22;10777;50.828;3.264;2022-08-01T07:01:27;21.80;99.90
21238;DHT22;10777;50.828;3.264;2022-08-01T07:03:53;21.80;99.90
21238;DHT22;10777;50.828;3.264;2022-08-01T07:06:20;22.20;99.90
21238;DHT22;10777;50.828;3.264;2022-08-01T07:08:46;22.20;99.90
21238;DHT22;10777;50.828;3.264;2022-08-01T07:11:12;22.00;99.90
21238;DHT22;10777;50.828;3.264;2022-08-01T07:13:37;22.20;99.90
21238;DHT22;10777;50.828;3.264;2022-08-01T07:16:04;22.30;99.90
21238;DHT22;10777;50.828;3.264;2022-08-01T07:18:29;22.30;99.90
21238;DHT22;10777;50.828;3.264;2022-08-01T07:20:55;22.20;99.90
21238;DHT22;10777;50.828;3.264;2022-08-01T07:23:21;22.10;99.90
21238;DHT22;10777;50.828;3.264;2022-08-01T07:25:47;22.20;99.90
21238;DHT22;10777;50.828;3.264;2022-08-01T07:28:15;22.60;99.90
21238;DHT22;10777;50.828;3.264;2022-08-01T07:30:40;22.40;99.90
21238;DHT22;10777;50.828;3.264;2022-08-01T07:33:07;22.50;99.90
21238;DHT22;10777;50.828;3.264;2022-08-01T07:35:34;22.30;99.90
21238;DHT22;10777;50.828;3.264;2022-08-01T07:37:59;22.30;99.90
21238;DHT22;10777;50.828;3.264;2022-08-01T07:40:25;22.40;99.90
21238;DHT22;10777;50.828;3.264;2022-08-01T07:42:51;22.40;99.90
21238;DHT22;10777;50.828;3.264;2022-08-01T07:45:16;22.50;99.90
21238;DHT22;10777;50.828;3.264;2022-08-01T07:47:43;22.50;99.90
21238;DHT22;10777;50.828;3.264;2022-08-01T07:50:09;22.50;99.90
21238;DHT22;10777;50.828;3.264;2022-08-01T07:52:35;22.80;99.90
21238;DHT22;10777;50.828;3.264;2022-08-01T07:55:01;22.70;99.90
21238;DHT22;10777;50.828;3.264;2022-08-01T07:57:27;22.90;99.90
21238;DHT22;10777;50.828;3.264;2022-08-01T07:59:53;22.90;99.90
21238;DHT22;10777;50.828;3.264;2022-08-01T08:02:19;23.10;99.90
21238;DHT22;10777;50.828;3.264;2022-08-01T08:04:45;23.10;99.90
21238;DHT22;10777;50.828;3.264;2022-08-01T08:07:10;23.10;99.90
21238;DHT22;10777;50.828;3.264;2022-08-01T08:09:36;23.40;99.90
21238;DHT22;10777;50.828;3.264;2022-08-01T08:12:02;23.80;99.90
21238;DHT22;10777;50.828;3.264;2022-08-01T08:14:27;23.70;99.90
21238;DHT22;10777;50.828;3.264;2022-08-01T08:16:54;24.00;99.90
21238;DHT22;10777;50.828;3.264;2022-08-01T08:19:20;24.10;99.90
21238;DHT22;10777;50.828;3.264;2022-08-01T08:21:46;24.00;99.90
21238;DHT22;10777;50.828;3.264;2022-08-01T08:24:12;23.70;99.90
21238;DHT22;10777;50.828;3.264;2022-08-01T08:26:45;23.80;99.90
21238;DHT22;10777;50.828;3.264;2022-08-01T08:29:12;23.70;99.90
21238;DHT22;10777;50.828;3.264;2022-08-01T08:31:37;23.60;99.90
21238;DHT22;10777;50.828;3.264;2022-08-01T08:34:04;23.50;99.90
21238;DHT22;10777;50.828;3.264;2022-08-01T08:36:30;23.70;99.90
21238;DHT22;10777;50.828;3.264;2022-08-01T08:38:55;23.80;99.90
21238;DHT22;10777;50.828;3.264;2022-08-01T08:41:22;24.00;99.90
21238;DHT22;10777;50.828;3.264;2022-08-01T08:43:48;24.30;99.90
21238;DHT22;10777;50.828;3.264;2022-08-01T08:46:14;24.20;99.90
21238;DHT22;10777;50.828;3.264;2022-08-01T08:48:41;24.20;99.90
21238;DHT22;10777;50.828;3.264;2022-08-01T08:51:08;24.50;99.90
21238;DHT22;10777;50.828;3.264;2022-08-01T08:53:37;24.50;99.90
21238;DHT22;10777;50.828;3.264;2022-08-01T08:56:06;24.60;99.90
21238;DHT22;10777;50.828;3.264;2022-08-01T08:58:35;24.80;99.90
21238;DHT22;10777;50.828;3.264;2022-08-01T09:01:05;24.90;99.90
21238;DHT22;10777;50.828;3.264;2022-08-01T09:03:33;24.70;99.90
21238;DHT22;10777;50.828;3.264;2022-08-01T09:06:00;24.80;99.90
21238;DHT22;10777;50.828;3.264;2022-08-01T09:08:27;25.10;99.90
21238;DHT22;10777;50.828;3.264;2022-08-01T09:10:53;24.60;99.90
21238;DHT22;10777;50.828;3.264;2022-08-01T09:13:19;24.10;99.90
21238;DHT22;10777;50.828;3.264;2022-08-01T09:15:49;23.80;99.90
21238;DHT22;10777;50.828;3.264;2022-08-01T09:18:28;23.70;99.90
21238;DHT22;10777;50.828;3.264;2022-08-01T09:21:14;23.60;99.90
21238;DHT22;10777;50.828;3.264;2022-08-01T09:23:51;24.00;99.90
21238;DHT22;10777;50.828;3.264;2022-08-01T09:26:19;24.00;99.90
21238;DHT22;10777;50.828;3.264;2022-08-01T09:28:47;23.90;99.90
21238;DHT22;10777;50.828;3.264;2022-08-01T09:31:16;24.10;99.90
21238;DHT22;10777;50.828;3.264;2022-08-01T09:33:59;24.20;99.90
21238;DHT22;10777;50.828;3.264;2022-08-01T09:36:52;24.10;99.90
21238;DHT22;10777;50.828;3.264;2022-08-01T09:39:21;23.90;99.90
21238;DHT22;10777;50.828;3.264;2022-08-01T09:41:48;24.20;99.90
21238;DHT22;10777;50.828;3.264;2022-08-01T09:44:16;24.50;99.90
21238;DHT22;10777;50.828;3.264;2022-08-01T09:46:52;24.80;99.90
21238;DHT22;10777;50.828;3.264;2022-08-01T09:49:37;24.70;99.90
21238;DHT22;10777;50.828;3.264;2022-08-01T09:52:20;24.90;99.90
21238;DHT22;10777;50.828;3.264;2022-08-01T09:55:05;25.40;99.90
21238;DHT22;10777;50.828;3.264;2022-08-01T09:57:31;25.40;99.90
21238;DHT22;10777;50.828;3.264;2022-08-01T10:00:00;25.70;99.90
21238;DHT22;10777;50.828;3.264;2022-08-01T10:02:34;25.60;99.90
21238;DHT22;10777;50.828;3.264;2022-08-01T10:05:02;25.30;99.90
21238;DHT22;10777;50.828;3.264;2022-08-01T10:07:28;25.60;99.90
21238;DHT22;10777;50.828;3.264;2022-08-01T10:09:54;25.40;99.90
21238;DHT22;10777;50.828;3.264;2022-08-01T10:12:22;25.20;99.90
21238;DHT22;10777;50.828;3.264;2022-08-01T10:14:50;25.60;99.90
21238;DHT22;10777;50.828;3.264;2022-08-01T10:17:19;26.40;99.90
21238;DHT22;10777;50.828;3.264;2022-08-01T10:19:46;25.50;99.90
21238;DHT22;10777;50.828;3.264;2022-08-01T10:22:13;25.00;99.90
21238;DHT22;10777;50.828;3.264;2022-08-01T10:24:45;25.10;99.90
21238;DHT22;10777;50.828;3.264;2022-08-01T10:27:15;25.40;99.90
21238;DHT22;10777;50.828;3.264;2022-08-01T10:29:50;25.50;99.90
21238;DHT22;10777;50.828;3.264;2022-08-01T10:32:17;25.60;99.90
21238;DHT22;10777;50.828;3.264;2022-08-01T10:34:43;25.00;99.90
21238;DHT22;10777;50.828;3.264;2022-08-01T10:37:10;25.20;99.90
21238;DHT22;10777;50.828;3.264;2022-08-01T10:39:39;25.50;99.90
21238;DHT22;10777;50.828;3.264;2022-08-01T10:42:06;25.90;99.90
21238;DHT22;10777;50.828;3.264;2022-08-01T10:44:35;26.10;99.90
21238;DHT22;10777;50.828;3.264;2022-08-01T10:47:08;26.30;99.90
21238;DHT22;10777;50.828;3.264;2022-08-01T10:49:41;26.50;99.90
21238;DHT22;10777;50.828;3.264;2022-08-01T10:52:14;26.80;99.90
21238;DHT22;10777;50.828;3.264;2022-08-01T10:54:40;27.00;99.90
21238;DHT22;10777;50.828;3.264;2022-08-01T10:57:06;27.10;99.90
21238;DHT22;10777;50.828;3.264;2022-08-01T10:59:32;27.10;99.90
21238;DHT22;10777;50.828;3.264;2022-08-01T11:02:01;26.80;99.90
21238;DHT22;10777;50.828;3.264;2022-08-01T11:04:39;27.10;99.90
21238;DHT22;10777;50.828;3.264;2022-08-01T11:07:16;26.90;99.90
21238;DHT22;10777;50.828;3.264;2022-08-01T11:09:45;26.80;99.90
21238;DHT22;10777;50.828;3.264;2022-08-01T11:12:15;27.00;99.90
21238;DHT22;10777;50.828;3.264;2022-08-01T11:15:18;27.10;99.90
21238;DHT22;10777;50.828;3.264;2022-08-01T11:17:50;26.50;99.90
21238;DHT22;10777;50.828;3.264;2022-08-01T11:20:27;26.70;99.90
21238;DHT22;10777;50.828;3.264;2022-08-01T11:23:15;26.90;99.90
21238;DHT22;10777;50.828;3.264;2022-08-01T11:26:05;26.80;99.90
21238;DHT22;10777;50.828;3.264;2022-08-01T11:28:31;26.80;99.90
21238;DHT22;10777;50.828;3.264;2022-08-01T11:31:26;26.90;99.90
21238;DHT22;10777;50.828;3.264;2022-08-01T11:33:52;26.80;99.90
21238;DHT22;10777;50.828;3.264;2022-08-01T11:36:18;27.10;99.90
21238;DHT22;10777;50.828;3.264;2022-08-01T11:38:49;27.10;99.90
21238;DHT22;10777;50.828;3.264;2022-08-01T11:41:36;27.00;99.90
21238;DHT22;10777;50.828;3.264;2022-08-01T11:44:20;27.20;99.90
21238;DHT22;10777;50.828;3.264;2022-08-01T11:47:02;27.20;99.90
21238;DHT22;10777;50.828;3.264;2022-08-01T11:49:49;27.30;99.90
21238;DHT22;10777;50.828;3.264;2022-08-01T11:52:29;27.70;99.90
21238;DHT22;10777;50.828;3.264;2022-08-01T11:55:08;27.70;99.90
21238;DHT22;10777;50.828;3.264;2022-08-01T11:57:35;27.70;99.90
21238;DHT22;10777;50.828;3.264;2022-08-01T12:02:57;27.80;99.90
21238;DHT22;10777;50.828;3.264;2022-08-01T12:05:23;28.10;99.90
21238;DHT22;10777;50.828;3.264;2022-08-01T12:07:50;28.20;99.90
21238;DHT22;10777;50.828;3.264;2022-08-01T12:10:18;28.20;99.90
21238;DHT22;10777;50.828;3.264;2022-08-01T12:12:50;27.70;99.90
21238;DHT22;10777;50.828;3.264;2022-08-01T12:15:18;27.50;99.90
21238;DHT22;10777;50.828;3.264;2022-08-01T12:17:47;27.30;99.90
21238;DHT22;10777;50.828;3.264;2022-08-01T12:20:18;27.70;99.90
21238;DHT22;10777;50.828;3.264;2022-08-01T12:22:44;27.50;99.90
21238;DHT22;10777;50.828;3.264;2022-08-01T12:25:12;27.20;99.90
21238;DHT22;10777;50.828;3.264;2022-08-01T12:27:40;27.10;99.90
21238;DHT22;10777;50.828;3.264;2022-08-01T12:30:09;26.80;99.90
21238;DHT22;10777;50.828;3.264;2022-08-01T12:32:37;26.60;99.90
21238;DHT22;10777;50.828;3.264;2022-08-01T12:35:09;27.00;99.90
21238;DHT22;10777;50.828;3.264;2022-08-01T12:37:38;27.50;99.90
21238;DHT22;10777;50.828;3.264;2022-08-01T12:40:13;27.60;99.90
21238;DHT22;10777;50.828;3.264;2022-08-01T12:42:42;27.80;99.90
21238;DHT22;10777;50.828;3.264;2022-08-01T12:45:10;27.80;99.90
21238;DHT22;10777;50.828;3.264;2022-08-01T12:47:37;27.90;99.90
21238;DHT22;10777;50.828;3.264;2022-08-01T12:50:06;27.70;99.90
21238;DHT22;10777;50.828;3.264;2022-08-01T12:52:33;27.80;99.90
21238;DHT22;10777;50.828;3.264;2022-08-01T12:55:20;27.60;99.90
21238;DHT22;10777;50.828;3.264;2022-08-01T12:57:48;27.80;99.90
21238;DHT22;10777;50.828;3.264;2022-08-01T13:00:20;27.90;99.90
21238;DHT22;10777;50.828;3.264;2022-08-01T13:02:48;28.10;99.90
21238;DHT22;10777;50.828;3.264;2022-08-01T13:05:15;28.20;99.90
21238;DHT22;10777;50.828;3.264;2022-08-01T13:07:48;28.30;99.90
21238;DHT22;10777;50.828;3.264;2022-08-01T13:10:26;28.50;99.90
21238;DHT22;10777;50.828;3.264;2022-08-01T13:12:54;28.80;99.90
21238;DHT22;10777;50.828;3.264;2022-08-01T13:15:23;28.90;99.90
21238;DHT22;10777;50.828;3.264;2022-08-01T13:17:50;28.60;99.90
21238;DHT22;10777;50.828;3.264;2022-08-01T13:20:26;28.70;99.90
21238;DHT22;10777;50.828;3.264;2022-08-01T13:22:53;28.20;99.90
21238;DHT22;10777;50.828;3.264;2022-08-01T13:25:19;28.40;99.90
21238;DHT22;10777;50.828;3.264;2022-08-01T13:27:45;28.30;99.90
21238;DHT22;10777;50.828;3.264;2022-08-01T13:30:15;28.50;99.90
21238;DHT22;10777;50.828;3.264;2022-08-01T13:32:41;28.70;99.90
21238;DHT22;10777;50.828;3.264;2022-08-01T13:35:11;27.80;99.90
21238;DHT22;10777;50.828;3.264;2022-08-01T13:37:39;27.70;99.90
21238;DHT22;10777;50.828;3.264;2022-08-01T13:40:07;27.80;99.90
21238;DHT22;10777;50.828;3.264;2022-08-01T13:42:33;28.10;99.90
21238;DHT22;10777;50.828;3.264;2022-08-01T13:44:59;28.00;99.90
21238;DHT22;10777;50.828;3.264;2022-08-01T13:47:25;28.10;99.90
21238;DHT22;10777;50.828;3.264;2022-08-01T13:49:51;28.10;99.90
21238;DHT22;10777;50.828;3.264;2022-08-01T13:52:17;28.30;99.90
21238;DHT22;10777;50.828;3.264;2022-08-01T13:54:42;28.70;99.90
21238;DHT22;10777;50.828;3.264;2022-08-01T13:57:08;28.90;99.90
21238;DHT22;10777;50.828;3.264;2022-08-01T13:59:35;29.60;99.90
21238;DHT22;10777;50.828;3.264;2022-08-01T14:02:01;29.00;99.90
21238;DHT22;10777;50.828;3.264;2022-08-01T14:04:27;29.00;99.90
21238;DHT22;10777;50.828;3.264;2022-08-01T14:06:52;29.20;99.90
21238;DHT22;10777;50.828;3.264;2022-08-01T14:09:18;29.70;99.90
21238;DHT22;10777;50.828;3.264;2022-08-01T14:11:45;30.80;99.90
21238;DHT22;10777;50.828;3.264;2022-08-01T14:14:11;30.60;99.90
21238;DHT22;10777;50.828;3.264;2022-08-01T14:16:37;30.10;99.90
21238;DHT22;10777;50.828;3.264;2022-08-01T14:19:04;29.30;99.90
21238;DHT22;10777;50.828;3.264;2022-08-01T14:21:30;28.90;99.90
21238;DHT22;10777;50.828;3.264;2022-08-01T14:23:56;29.70;99.90
21238;DHT22;10777;50.828;3.264;2022-08-01T14:26:22;30.90;99.90
21238;DHT22;10777;50.828;3.264;2022-08-01T14:28:48;32.40;99.90
21238;DHT22;10777;50.828;3.264;2022-08-01T14:31:13;33.80;99.90
21238;DHT22;10777;50.828;3.264;2022-08-01T14:33:39;34.90;99.90
21238;DHT22;10777;50.828;3.264;2022-08-01T14:36:05;34.60;98.90
21238;DHT22;10777;50.828;3.264;2022-08-01T14:38:31;33.30;99.50
21238;DHT22;10777;50.828;3.264;2022-08-01T14:40:57;33.00;99.60
21238;DHT22;10777;50.828;3.264;2022-08-01T14:43:22;33.00;99.70
21238;DHT22;10777;50.828;3.264;2022-08-01T14:45:48;33.50;98.70
21238;DHT22;10777;50.828;3.264;2022-08-01T14:48:17;33.20;98.20
21238;DHT22;10777;50.828;3.264;2022-08-01T14:50:43;32.30;99.10
21238;DHT22;10777;50.828;3.264;2022-08-01T14:53:08;32.20;99.70
21238;DHT22;10777;50.828;3.264;2022-08-01T14:55:34;33.00;99.20
21238;DHT22;10777;50.828;3.264;2022-08-01T14:58:00;34.40;97.20
21238;DHT22;10777;50.828;3.264;2022-08-01T15:00:25;36.00;95.00
21238;DHT22;10777;50.828;3.264;2022-08-01T15:02:51;36.40;93.40
21238;DHT22;10777;50.828;3.264;2022-08-01T15:05:17;37.10;91.90
21238;DHT22;10777;50.828;3.264;2022-08-01T15:07:43;37.50;90.80
21238;DHT22;10777;50.828;3.264;2022-08-01T15:10:09;38.10;88.60
21238;DHT22;10777;50.828;3.264;2022-08-01T15:12:35;39.00;84.20
21238;DHT22;10777;50.828;3.264;2022-08-01T15:15:00;39.10;82.60
21238;DHT22;10777;50.828;3.264;2022-08-01T15:17:28;39.10;79.10
21238;DHT22;10777;50.828;3.264;2022-08-01T15:19:55;38.00;79.70
21238;DHT22;10777;50.828;3.264;2022-08-01T15:22:23;36.30;81.50
21238;DHT22;10777;50.828;3.264;2022-08-01T15:24:50;36.30;83.90
21238;DHT22;10777;50.828;3.264;2022-08-01T15:27:17;35.60;82.40
21238;DHT22;10777;50.828;3.264;2022-08-01T15:29:43;35.90;82.30
21238;DHT22;10777;50.828;3.264;2022-08-01T15:32:09;35.10;83.90
21238;DHT22;10777;50.828;3.264;2022-08-01T15:34:36;36.30;81.70
21238;DHT22;10777;50.828;3.264;2022-08-01T15:37:02;36.80;80.10
21238;DHT22;10777;50.828;3.264;2022-08-01T15:39:29;38.00;77.90
21238;DHT22;10777;50.828;3.264;2022-08-01T15:41:54;38.60;77.20
21238;DHT22;10777;50.828;3.264;2022-08-01T15:44:21;39.10;75.30